sensor_id;sensor_type;location;lat;lon;timestamp;P1;durP1;ratioP1;P2;durP2;ratioP2
4986;SDS011;12674;51.500;7.552;2023-10-13T00:01:23;16.35;;;8.52;;
4986;SDS011;12674;51.500;7.552;2023-10-13T00:03:26;17.10;;;8.60;;
4986;SDS011;12674;51.500;7.552;2023-10-13T00:05:33;15.35;;;9.30;;
4986;SDS011;12674;51.500;7.552;2023-10-13T00:07:36;16.23;;;8.73;;
4986;SDS011;12674;51.500;7.552;2023-10-13T00:09:40;13.73;;;9.23;;
4986;SDS011;12674;51.500;7.552;2023-10-13T00:11:43;20.13;;;8.82;;
4986;SDS011;12674;51.500;7.552;2023-10-13T00:13:46;18.10;;;9.60;;
4986;SDS011;12674;51.500;7.552;2023-10-13T00:15:52;14.45;;;8.40;;
4986;SDS011;12674;51.500;7.552;2023-10-13T00:17:59;27.23;;;9.32;;
4986;SDS011;12674;51.500;7.552;2023-10-13T00:20:03;19.55;;;9.27;;
4986;SDS011;12674;51.500;7.552;2023-10-13T00:22:14;18.08;;;9.05;;
4986;SDS011;12674;51.500;7.552;2023-10-13T00:24:18;28.48;;;12.13;;
4986;SDS011;12674;51.500;7.552;2023-10-13T00:26:26;14.32;;;9.48;;
4986;SDS011;12674;51.500;7.552;2023-10-13T00:28:33;13.23;;;8.70;;
4986;SDS011;12674;51.500;7.552;2023-10-13T00:30:45;21.08;;;11.68;;
4986;SDS011;12674;51.500;7.552;2023-10-13T00:32:52;17.17;;;9.30;;
4986;SDS011;12674;51.500;7.552;2023-10-13T00:34:57;14.10;;;8.45;;
4986;SDS011;12674;51.500;7.552;2023-10-13T00:37:06;18.48;;;9.65;;
4986;SDS011;12674;51.500;7.552;2023-10-13T00:39:20;15.13;;;8.23;;
4986;SDS011;12674;51.500;7.552;2023-10-13T00:41:24;16.98;;;8.43;;
4986;SDS011;12674;51.500;7.552;2023-10-13T00:43:51;16.10;;;8.45;;
4986;SDS011;12674;51.500;7.552;2023-10-13T00:46:06;25.15;;;8.32;;
4986;SDS011;12674;51.500;7.552;2023-10-13T00:48:14;13.93;;;7.03;;
4986;SDS011;12674;51.500;7.552;2023-10-13T00:50:17;14.45;;;8.20;;
4986;SDS011;12674;51.500;7.552;2023-10-13T00:52:20;11.60;;;7.00;;
4986;SDS011;12674;51.500;7.552;2023-10-13T00:54:23;15.45;;;7.63;;
4986;SDS011;12674;51.500;7.552;2023-10-13T00:56:30;22.13;;;7.78;;
4986;SDS011;12674;51.500;7.552;2023-10-13T00:58:32;11.45;;;6.97;;
4986;SDS011;12674;51.500;7.552;2023-10-13T01:00:37;20.58;;;7.38;;
4986;SDS011;12674;51.500;7.552;2023-10-13T01:02:48;13.73;;;6.72;;
4986;SDS011;12674;51.500;7.552;2023-10-13T01:04:57;11.73;;;6.55;;
4986;SDS011;12674;51.500;7.552;2023-10-13T01:06:59;17.38;;;7.30;;
4986;SDS011;12674;51.500;7.552;2023-10-13T01:09:03;10.45;;;6.88;;
4986;SDS011;12674;51.500;7.552;2023-10-13T01:11:12;17.85;;;7.30;;
4986;SDS011;12674;51.500;7.552;2023-10-13T01:13:17;10.30;;;6.47;;
4986;SDS011;12674;51.500;7.552;2023-10-13T01:15:19;15.10;;;7.03;;
4986;SDS011;12674;51.500;7.552;2023-10-13T01:17:23;12.45;;;6.90;;
4986;SDS011;12674;51.500;7.552;2023-10-13T01:19:25;10.18;;;6.43;;
4986;SDS011;12674;51.500;7.552;2023-10-13T01:21:29;13.80;;;7.18;;
4986;SDS011;12674;51.500;7.552;2023-10-13T01:23:32;18.55;;;7.10;;
4986;SDS011;12674;51.500;7.552;2023-10-13T01:25:39;10.57;;;6.40;;
4986;SDS011;12674;51.500;7.552;2023-10-13T01:27:42;11.70;;;7.25;;
4986;SDS011;12674;51.500;7.552;2023-10-13T01:29:49;12.38;;;7.05;;
4986;SDS011;12674;51.500;7.552;2023-10-13T01:31:54;10.30;;;7.18;;
4986;SDS011;12674;51.500;7.552;2023-10-13T01:33:57;15.82;;;7.32;;
4986;SDS011;12674;51.500;7.552;2023-10-13T01:36:00;19.13;;;7.78;;
4986;SDS011;12674;51.500;7.552;2023-10-13T01:38:08;12.38;;;7.25;;
4986;SDS011;12674;51.500;7.552;2023-10-13T01:40:11;15.63;;;6.85;;
4986;SDS011;12674;51.500;7.552;2023-10-13T01:42:20;16.67;;;7.00;;
4986;SDS011;12674;51.500;7.552;2023-10-13T01:44:24;18.67;;;7.65;;
4986;SDS011;12674;51.500;7.552;2023-10-13T01:46:29;15.82;;;6.70;;
4986;SDS011;12674;51.500;7.552;2023-10-13T01:48:31;9.93;;;7.45;;
4986;SDS011;12674;51.500;7.552;2023-10-13T01:50:39;13.80;;;7.03;;
4986;SDS011;12674;51.500;7.552;2023-10-13T01:52:41;12.40;;;6.70;;
4986;SDS011;12674;51.500;7.552;2023-10-13T01:54:45;11.23;;;6.70;;
4986;SDS011;12674;51.500;7.552;2023-10-13T01:56:49;14.45;;;6.65;;
4986;SDS011;12674;51.500;7.552;2023-10-13T01:58:51;8.50;;;5.95;;
4986;SDS011;12674;51.500;7.552;2023-10-13T02:00:55;23.27;;;6.85;;
4986;SDS011;12674;51.500;7.552;2023-10-13T02:02:58;10.50;;;7.00;;
4986;SDS011;12674;51.500;7.552;2023-10-13T02:05:02;15.38;;;7.10;;
4986;SDS011;12674;51.500;7.552;2023-10-13T02:07:06;12.32;;;6.68;;
4986;SDS011;12674;51.500;7.552;2023-10-13T02:09:11;13.45;;;7.15;;
4986;SDS011;12674;51.500;7.552;2023-10-13T02:11:16;8.63;;;6.90;;
4986;SDS011;12674;51.500;7.552;2023-10-13T02:13:22;17.88;;;7.82;;
4986;SDS011;12674;51.500;7.552;2023-10-13T02:15:27;12.02;;;6.10;;
4986;SDS011;12674;51.500;7.552;2023-10-13T02:17:36;11.13;;;7.07;;
4986;SDS011;12674;51.500;7.552;2023-10-13T02:19:43;11.63;;;6.68;;
4986;SDS011;12674;51.500;7.552;2023-10-13T02:21:47;11.10;;;6.82;;
4986;SDS011;12674;51.500;7.552;2023-10-13T02:24:00;13.45;;;7.32;;
4986;SDS011;12674;51.500;7.552;2023-10-13T02:26:02;12.15;;;7.10;;
4986;SDS011;12674;51.500;7.552;2023-10-13T02:28:13;12.43;;;6.80;;
4986;SDS011;12674;51.500;7.552;2023-10-13T02:30:17;9.88;;;6.22;;
4986;SDS011;12674;51.500;7.552;2023-10-13T02:32:25;11.38;;;6.95;;
4986;SDS011;12674;51.500;7.552;2023-10-13T02:34:28;12.57;;;6.88;;
4986;SDS011;12674;51.500;7.552;2023-10-13T02:36:33;19.98;;;7.28;;
4986;SDS011;12674;51.500;7.552;2023-10-13T02:38:38;13.02;;;6.93;;
4986;SDS011;12674;51.500;7.552;2023-10-13T02:40:47;12.10;;;7.72;;
4986;SDS011;12674;51.500;7.552;2023-10-13T02:42:49;8.45;;;6.40;;
4986;SDS011;12674;51.500;7.552;2023-10-13T02:44:52;9.98;;;7.25;;
4986;SDS011;12674;51.500;7.552;2023-10-13T02:46:58;11.88;;;7.45;;
4986;SDS011;12674;51.500;7.552;2023-10-13T02:49:01;12.20;;;6.75;;
4986;SDS011;12674;51.500;7.552;2023-10-13T02:51:12;13.27;;;7.25;;
4986;SDS011;12674;51.500;7.552;2023-10-13T02:53:18;11.35;;;6.28;;
4986;SDS011;12674;51.500;7.552;2023-10-13T02:55:20;14.27;;;6.78;;
4986;SDS011;12674;51.500;7.552;2023-10-13T02:57:27;15.57;;;7.32;;
4986;SDS011;12674;51.500;7.552;2023-10-13T02:59:29;14.15;;;7.18;;
4986;SDS011;12674;51.500;7.552;2023-10-13T03:01:42;12.27;;;6.80;;
4986;SDS011;12674;51.500;7.552;2023-10-13T03:03:46;13.88;;;6.30;;
4986;SDS011;12674;51.500;7.552;2023-10-13T03:05:51;19.00;;;6.88;;
4986;SDS011;12674;51.500;7.552;2023-10-13T03:07:53;10.40;;;6.07;;
4986;SDS011;12674;51.500;7.552;2023-10-13T03:09:57;9.48;;;6.72;;
4986;SDS011;12674;51.500;7.552;2023-10-13T03:12:02;11.43;;;7.28;;
4986;SDS011;12674;51.500;7.552;2023-10-13T03:14:06;8.35;;;6.80;;
4986;SDS011;12674;51.500;7.552;2023-10-13T03:16:12;9.27;;;6.75;;
4986;SDS011;12674;51.500;7.552;2023-10-13T03:18:17;8.57;;;5.75;;
4986;SDS011;12674;51.500;7.552;2023-10-13T03:20:21;13.90;;;7.35;;
4986;SDS011;12674;51.500;7.552;2023-10-13T03:22:27;11.70;;;6.85;;
4986;SDS011;12674;51.500;7.552;2023-10-13T03:24:32;9.63;;;6.57;;
4986;SDS011;12674;51.500;7.552;2023-10-13T03:26:35;13.35;;;7.05;;
4986;SDS011;12674;51.500;7.552;2023-10-13T03:28:38;13.10;;;7.28;;
4986;SDS011;12674;51.500;7.552;2023-10-13T03:30:41;9.85;;;6.85;;
4986;SDS011;12674;51.500;7.552;2023-10-13T03:32:44;11.68;;;6.53;;
4986;SDS011;12674;51.500;7.552;2023-10-13T03:34:48;10.82;;;7.55;;
4986;SDS011;12674;51.500;7.552;2023-10-13T03:37:14;13.77;;;7.53;;
4986;SDS011;12674;51.500;7.552;2023-10-13T03:39:19;17.77;;;7.22;;
4986;SDS011;12674;51.500;7.552;2023-10-13T03:41:28;15.63;;;7.45;;
4986;SDS011;12674;51.500;7.552;2023-10-13T03:43:32;14.52;;;6.95;;
4986;SDS011;12674;51.500;7.552;2023-10-13T03:45:46;18.45;;;7.72;;
4986;SDS011;12674;51.500;7.552;2023-10-13T03:47:53;10.75;;;7.10;;
4986;SDS011;12674;51.500;7.552;2023-10-13T03:49:55;12.95;;;8.55;;
4986;SDS011;12674;51.500;7.552;2023-10-13T03:52:17;32.00;;;8.45;;
4986;SDS011;12674;51.500;7.552;2023-10-13T03:54:24;20.83;;;8.90;;
4986;SDS011;12674;51.500;7.552;2023-10-13T03:56:31;18.20;;;8.23;;
4986;SDS011;12674;51.500;7.552;2023-10-13T03:58:41;15.70;;;8.35;;
4986;SDS011;12674;51.500;7.552;2023-10-13T04:00:47;16.08;;;9.30;;
4986;SDS011;12674;51.500;7.552;2023-10-13T04:02:50;11.18;;;8.48;;
4986;SDS011;12674;51.500;7.552;2023-10-13T04:05:07;19.02;;;8.77;;
4986;SDS011;12674;51.500;7.552;2023-10-13T04:07:11;15.70;;;8.77;;
4986;SDS011;12674;51.500;7.552;2023-10-13T04:09:34;13.50;;;8.73;;
4986;SDS011;12674;51.500;7.552;2023-10-13T04:11:55;14.52;;;8.80;;
4986;SDS011;12674;51.500;7.552;2023-10-13T04:14:12;12.90;;;8.00;;
4986;SDS011;12674;51.500;7.552;2023-10-13T04:16:25;11.82;;;7.78;;
4986;SDS011;12674;51.500;7.552;2023-10-13T04:18:37;15.82;;;8.77;;
4986;SDS011;12674;51.500;7.552;2023-10-13T04:21:05;11.05;;;8.02;;
4986;SDS011;12674;51.500;7.552;2023-10-13T04:23:20;11.32;;;7.97;;
4986;SDS011;12674;51.500;7.552;2023-10-13T04:25:28;16.98;;;7.90;;
4986;SDS011;12674;51.500;7.552;2023-10-13T04:27:37;14.15;;;7.70;;
4986;SDS011;12674;51.500;7.552;2023-10-13T04:29:55;21.08;;;8.15;;
4986;SDS011;12674;51.500;7.552;2023-10-13T04:32:12;23.10;;;7.20;;
4986;SDS011;12674;51.500;7.552;2023-10-13T04:34:16;18.70;;;8.27;;
4986;SDS011;12674;51.500;7.552;2023-10-13T04:36:29;18.73;;;8.00;;
4986;SDS011;12674;51.500;7.552;2023-10-13T04:38:47;11.05;;;7.50;;
4986;SDS011;12674;51.500;7.552;2023-10-13T04:40:59;11.10;;;7.28;;
4986;SDS011;12674;51.500;7.552;2023-10-13T04:43:03;18.58;;;7.28;;
4986;SDS011;12674;51.500;7.552;2023-10-13T04:45:06;15.13;;;7.47;;
4986;SDS011;12674;51.500;7.552;2023-10-13T04:47:38;12.48;;;7.40;;
4986;SDS011;12674;51.500;7.552;2023-10-13T04:49:44;15.20;;;8.35;;
4986;SDS011;12674;51.500;7.552;2023-10-13T04:51:54;12.13;;;7.70;;
4986;SDS011;12674;51.500;7.552;2023-10-13T04:54:14;19.92;;;8.68;;
4986;SDS011;12674;51.500;7.552;2023-10-13T04:56:28;16.75;;;7.68;;
4986;SDS011;12674;51.500;7.552;2023-10-13T04:59:00;12.20;;;7.45;;
4986;SDS011;12674;51.500;7.552;2023-10-13T05:01:35;22.05;;;8.85;;
4986;SDS011;12674;51.500;7.552;2023-10-13T05:04:12;26.73;;;8.00;;
4986;SDS011;12674;51.500;7.552;2023-10-13T05:06:24;17.92;;;8.52;;
4986;SDS011;12674;51.500;7.552;2023-10-13T05:08:44;13.07;;;7.80;;
4986;SDS011;12674;51.500;7.552;2023-10-13T05:11:05;14.40;;;7.35;;
4986;SDS011;12674;51.500;7.552;2023-10-13T05:13:27;12.30;;;7.45;;
4986;SDS011;12674;51.500;7.552;2023-10-13T05:15:48;13.70;;;6.82;;
4986;SDS011;12674;51.500;7.552;2023-10-13T05:18:09;18.52;;;8.18;;
4986;SDS011;12674;51.500;7.552;2023-10-13T05:20:30;22.70;;;8.07;;
4986;SDS011;12674;51.500;7.552;2023-10-13T05:22:50;17.25;;;7.28;;
4986;SDS011;12674;51.500;7.552;2023-10-13T05:25:10;14.05;;;7.40;;
4986;SDS011;12674;51.500;7.552;2023-10-13T05:27:31;15.02;;;8.07;;
4986;SDS011;12674;51.500;7.552;2023-10-13T05:29:49;22.48;;;8.88;;
4986;SDS011;12674;51.500;7.552;2023-10-13T05:32:09;16.73;;;9.00;;
4986;SDS011;12674;51.500;7.552;2023-10-13T05:34:30;13.13;;;8.13;;
4986;SDS011;12674;51.500;7.552;2023-10-13T05:36:50;16.85;;;8.80;;
4986;SDS011;12674;51.500;7.552;2023-10-13T05:39:11;14.63;;;8.38;;
4986;SDS011;12674;51.500;7.552;2023-10-13T05:41:31;18.30;;;9.18;;
4986;SDS011;12674;51.500;7.552;2023-10-13T05:43:51;12.07;;;7.47;;
4986;SDS011;12674;51.500;7.552;2023-10-13T05:46:13;12.73;;;7.90;;
4986;SDS011;12674;51.500;7.552;2023-10-13T05:48:34;13.32;;;7.50;;
4986;SDS011;12674;51.500;7.552;2023-10-13T05:51:03;13.65;;;8.05;;
4986;SDS011;12674;51.500;7.552;2023-10-13T05:53:24;17.92;;;7.10;;
4986;SDS011;12674;51.500;7.552;2023-10-13T05:55:44;16.30;;;7.82;;
4986;SDS011;12674;51.500;7.552;2023-10-13T05:58:05;23.88;;;8.27;;
4986;SDS011;12674;51.500;7.552;2023-10-13T06:00:25;17.25;;;7.80;;
4986;SDS011;12674;51.500;7.552;2023-10-13T06:02:47;15.27;;;7.93;;
4986;SDS011;12674;51.500;7.552;2023-10-13T06:05:08;22.35;;;7.65;;
4986;SDS011;12674;51.500;7.552;2023-10-13T06:07:30;11.63;;;6.90;;
4986;SDS011;12674;51.500;7.552;2023-10-13T06:09:50;14.35;;;6.85;;
4986;SDS011;12674;51.500;7.552;2023-10-13T06:12:11;15.40;;;7.93;;
4986;SDS011;12674;51.500;7.552;2023-10-13T06:14:32;11.48;;;7.60;;
4986;SDS011;12674;51.500;7.552;2023-10-13T06:16:52;16.92;;;7.13;;
4986;SDS011;12674;51.500;7.552;2023-10-13T06:19:14;14.27;;;6.30;;
4986;SDS011;12674;51.500;7.552;2023-10-13T06:21:34;18.60;;;7.40;;
4986;SDS011;12674;51.500;7.552;2023-10-13T06:23:55;10.43;;;6.22;;
4986;SDS011;12674;51.500;7.552;2023-10-13T06:26:15;10.88;;;6.10;;
4986;SDS011;12674;51.500;7.552;2023-10-13T06:28:36;17.52;;;6.47;;
4986;SDS011;12674;51.500;7.552;2023-10-13T06:30:53;11.68;;;5.38;;
4986;SDS011;12674;51.500;7.552;2023-10-13T06:32:58;16.13;;;6.20;;
4986;SDS011;12674;51.500;7.552;2023-10-13T06:35:04;10.38;;;5.55;;
4986;SDS011;12674;51.500;7.552;2023-10-13T06:37:08;13.05;;;5.57;;
4986;SDS011;12674;51.500;7.552;2023-10-13T06:39:24;14.05;;;5.78;;
4986;SDS011;12674;51.500;7.552;2023-10-13T06:41:37;8.35;;;4.70;;
4986;SDS011;12674;51.500;7.552;2023-10-13T06:43:42;17.45;;;4.97;;
4986;SDS011;12674;51.500;7.552;2023-10-13T06:45:45;10.00;;;4.35;;
4986;SDS011;12674;51.500;7.552;2023-10-13T06:47:52;12.82;;;4.88;;
4986;SDS011;12674;51.500;7.552;2023-10-13T06:49:57;21.02;;;5.22;;
4986;SDS011;12674;51.500;7.552;2023-10-13T06:52:03;10.00;;;4.70;;
4986;SDS011;12674;51.500;7.552;2023-10-13T06:54:07;10.07;;;4.65;;
4986;SDS011;12674;51.500;7.552;2023-10-13T06:56:20;7.05;;;4.00;;
4986;SDS011;12674;51.500;7.552;2023-10-13T06:58:29;8.95;;;4.22;;
4986;SDS011;12674;51.500;7.552;2023-10-13T07:00:32;8.38;;;4.35;;
4986;SDS011;12674;51.500;7.552;2023-10-13T07:02:36;5.93;;;4.10;;
4986;SDS011;12674;51.500;7.552;2023-10-13T07:04:39;5.60;;;4.22;;
4986;SDS011;12674;51.500;7.552;2023-10-13T07:06:43;13.70;;;4.35;;
4986;SDS011;12674;51.500;7.552;2023-10-13T07:08:51;14.30;;;4.18;;
4986;SDS011;12674;51.500;7.552;2023-10-13T07:10:54;8.35;;;3.72;;
4986;SDS011;12674;51.500;7.552;2023-10-13T07:13:07;12.68;;;4.65;;
4986;SDS011;12674;51.500;7.552;2023-10-13T07:15:10;10.20;;;4.47;;
4986;SDS011;12674;51.500;7.552;2023-10-13T07:17:21;10.05;;;4.50;;
4986;SDS011;12674;51.500;7.552;2023-10-13T07:19:26;11.07;;;4.40;;
4986;SDS011;12674;51.500;7.552;2023-10-13T07:21:30;19.25;;;4.63;;
4986;SDS011;12674;51.500;7.552;2023-10-13T07:23:33;9.20;;;4.15;;
4986;SDS011;12674;51.500;7.552;2023-10-13T07:25:38;9.77;;;5.15;;
4986;SDS011;12674;51.500;7.552;2023-10-13T07:27:42;12.27;;;5.30;;
4986;SDS011;12674;51.500;7.552;2023-10-13T07:29:46;11.48;;;4.75;;
4986;SDS011;12674;51.500;7.552;2023-10-13T07:31:51;12.70;;;4.57;;
4986;SDS011;12674;51.500;7.552;2023-10-13T07:33:54;14.02;;;5.13;;
4986;SDS011;12674;51.500;7.552;2023-10-13T07:36:07;14.60;;;5.47;;
4986;SDS011;12674;51.500;7.552;2023-10-13T07:38:29;13.20;;;5.22;;
4986;SDS011;12674;51.500;7.552;2023-10-13T07:40:40;15.77;;;5.03;;
4986;SDS011;12674;51.500;7.552;2023-10-13T07:42:43;12.55;;;5.50;;
4986;SDS011;12674;51.500;7.552;2023-10-13T07:44:47;17.15;;;5.72;;
4986;SDS011;12674;51.500;7.552;2023-10-13T07:46:51;10.10;;;5.63;;
4986;SDS011;12674;51.500;7.552;2023-10-13T07:49:00;9.90;;;5.78;;
4986;SDS011;12674;51.500;7.552;2023-10-13T07:51:12;11.23;;;6.57;;
4986;SDS011;12674;51.500;7.552;2023-10-13T07:53:17;18.02;;;6.30;;
4986;SDS011;12674;51.500;7.552;2023-10-13T07:55:24;16.40;;;6.68;;
4986;SDS011;12674;51.500;7.552;2023-10-13T07:57:29;15.48;;;5.95;;
4986;SDS011;12674;51.500;7.552;2023-10-13T07:59:32;12.55;;;6.15;;
4986;SDS011;12674;51.500;7.552;2023-10-13T08:01:36;15.80;;;5.90;;
4986;SDS011;12674;51.500;7.552;2023-10-13T08:03:44;18.65;;;6.00;;
4986;SDS011;12674;51.500;7.552;2023-10-13T08:05:51;18.02;;;5.75;;
4986;SDS011;12674;51.500;7.552;2023-10-13T08:08:00;16.88;;;5.65;;
4986;SDS011;12674;51.500;7.552;2023-10-13T08:10:05;15.30;;;6.63;;
4986;SDS011;12674;51.500;7.552;2023-10-13T08:12:11;19.38;;;7.03;;
4986;SDS011;12674;51.500;7.552;2023-10-13T08:14:24;18.73;;;7.68;;
4986;SDS011;12674;51.500;7.552;2023-10-13T08:16:40;15.18;;;6.30;;
4986;SDS011;12674;51.500;7.552;2023-10-13T08:18:54;22.38;;;5.70;;
4986;SDS011;12674;51.500;7.552;2023-10-13T08:20:57;15.75;;;5.93;;
4986;SDS011;12674;51.500;7.552;2023-10-13T08:23:05;15.15;;;5.93;;
4986;SDS011;12674;51.500;7.552;2023-10-13T08:25:22;16.67;;;5.93;;
4986;SDS011;12674;51.500;7.552;2023-10-13T08:27:45;12.98;;;5.35;;
4986;SDS011;12674;51.500;7.552;2023-10-13T08:29:53;15.43;;;5.22;;
4986;SDS011;12674;51.500;7.552;2023-10-13T08:32:12;16.98;;;5.05;;
4986;SDS011;12674;51.500;7.552;2023-10-13T08:34:37;26.48;;;5.95;;
4986;SDS011;12674;51.500;7.552;2023-10-13T08:36:41;16.50;;;4.93;;
4986;SDS011;12674;51.500;7.552;2023-10-13T08:38:45;15.02;;;4.70;;
4986;SDS011;12674;51.500;7.552;2023-10-13T08:40:53;18.98;;;5.68;;
4986;SDS011;12674;51.500;7.552;2023-10-13T08:43:17;24.67;;;5.32;;
4986;SDS011;12674;51.500;7.552;2023-10-13T08:45:21;15.68;;;5.28;;
4986;SDS011;12674;51.500;7.552;2023-10-13T08:47:44;16.67;;;4.93;;
4986;SDS011;12674;51.500;7.552;2023-10-13T08:50:19;19.55;;;4.63;;
4986;SDS011;12674;51.500;7.552;2023-10-13T08:52:49;16.77;;;5.63;;
4986;SDS011;12674;51.500;7.552;2023-10-13T08:54:58;15.80;;;5.22;;
4986;SDS011;12674;51.500;7.552;2023-10-13T08:57:15;15.73;;;5.15;;
4986;SDS011;12674;51.500;7.552;2023-10-13T08:59:35;21.02;;;5.22;;
4986;SDS011;12674;51.500;7.552;2023-10-13T09:01:42;20.15;;;5.70;;
4986;SDS011;12674;51.500;7.552;2023-10-13T09:03:50;27.95;;;5.45;;
4986;SDS011;12674;51.500;7.552;2023-10-13T09:05:54;16.35;;;4.93;;
4986;SDS011;12674;51.500;7.552;2023-10-13T09:08:03;13.90;;;5.30;;
4986;SDS011;12674;51.500;7.552;2023-10-13T09:10:11;27.50;;;5.28;;
4986;SDS011;12674;51.500;7.552;2023-10-13T09:12:35;17.33;;;4.80;;
4986;SDS011;12674;51.500;7.552;2023-10-13T09:14:37;17.13;;;5.43;;
4986;SDS011;12674;51.500;7.552;2023-10-13T09:16:46;18.80;;;4.80;;
4986;SDS011;12674;51.500;7.552;2023-10-13T09:19:09;15.95;;;5.00;;
4986;SDS011;12674;51.500;7.552;2023-10-13T09:21:15;18.77;;;4.68;;
4986;SDS011;12674;51.500;7.552;2023-10-13T09:23:35;22.65;;;6.10;;
4986;SDS011;12674;51.500;7.552;2023-10-13T09:25:50;19.35;;;5.28;;
4986;SDS011;12674;51.500;7.552;2023-10-13T09:27:59;22.90;;;4.68;;
4986;SDS011;12674;51.500;7.552;2023-10-13T09:30:04;19.30;;;4.85;;
4986;SDS011;12674;51.500;7.552;2023-10-13T09:32:12;19.80;;;5.32;;
4986;SDS011;12674;51.500;7.552;2023-10-13T09:34:21;19.15;;;4.43;;
4986;SDS011;12674;51.500;7.552;2023-10-13T09:36:25;19.05;;;5.55;;
4986;SDS011;12674;51.500;7.552;2023-10-13T09:38:29;19.25;;;4.65;;
4986;SDS011;12674;51.500;7.552;2023-10-13T09:40:30;37.28;;;6.63;;
4986;SDS011;12674;51.500;7.552;2023-10-13T09:42:40;25.15;;;4.75;;
4986;SDS011;12674;51.500;7.552;2023-10-13T09:44:41;26.13;;;5.13;;
4986;SDS011;12674;51.500;7.552;2023-10-13T09:46:51;31.23;;;6.13;;
4986;SDS011;12674;51.500;7.552;2023-10-13T09:48:58;27.85;;;6.00;;
4986;SDS011;12674;51.500;7.552;2023-10-13T09:51:11;21.98;;;5.07;;
4986;SDS011;12674;51.500;7.552;2023-10-13T09:53:14;16.92;;;5.13;;
4986;SDS011;12674;51.500;7.552;2023-10-13T09:55:21;21.88;;;5.57;;
4986;SDS011;12674;51.500;7.552;2023-10-13T09:57:28;15.02;;;4.88;;
4986;SDS011;12674;51.500;7.552;2023-10-13T09:59:39;18.23;;;5.03;;
4986;SDS011;12674;51.500;7.552;2023-10-13T10:01:49;16.27;;;5.00;;
4986;SDS011;12674;51.500;7.552;2023-10-13T10:04:07;19.83;;;5.30;;
4986;SDS011;12674;51.500;7.552;2023-10-13T10:06:10;20.83;;;5.35;;
4986;SDS011;12674;51.500;7.552;2023-10-13T10:08:29;16.17;;;5.43;;
4986;SDS011;12674;51.500;7.552;2023-10-13T10:10:43;21.27;;;5.10;;
4986;SDS011;12674;51.500;7.552;2023-10-13T10:12:52;22.13;;;4.88;;
4986;SDS011;12674;51.500;7.552;2023-10-13T10:15:09;27.48;;;5.13;;
4986;SDS011;12674;51.500;7.552;2023-10-13T10:17:29;14.77;;;5.30;;
4986;SDS011;12674;51.500;7.552;2023-10-13T10:19:46;20.17;;;5.20;;
4986;SDS011;12674;51.500;7.552;2023-10-13T10:21:50;22.23;;;5.30;;
4986;SDS011;12674;51.500;7.552;2023-10-13T10:24:16;21.08;;;5.50;;
4986;SDS011;12674;51.500;7.552;2023-10-13T10:26:27;13.98;;;5.68;;
4986;SDS011;12674;51.500;7.552;2023-10-13T10:28:34;23.40;;;5.53;;
4986;SDS011;12674;51.500;7.552;2023-10-13T10:30:38;17.65;;;5.32;;
4986;SDS011;12674;51.500;7.552;2023-10-13T10:32:40;17.88;;;5.18;;
4986;SDS011;12674;51.500;7.552;2023-10-13T10:34:51;15.93;;;5.68;;
4986;SDS011;12674;51.500;7.552;2023-10-13T10:37:11;16.63;;;5.38;;
4986;SDS011;12674;51.500;7.552;2023-10-13T10:39:15;21.10;;;5.60;;
4986;SDS011;12674;51.500;7.552;2023-10-13T10:41:25;14.10;;;5.55;;
4986;SDS011;12674;51.500;7.552;2023-10-13T10:43:35;21.30;;;5.78;;
4986;SDS011;12674;51.500;7.552;2023-10-13T10:45:45;16.25;;;5.90;;
4986;SDS011;12674;51.500;7.552;2023-10-13T10:47:48;34.03;;;5.32;;
4986;SDS011;12674;51.500;7.552;2023-10-13T10:49:54;43.03;;;6.97;;
4986;SDS011;12674;51.500;7.552;2023-10-13T10:51:57;24.45;;;5.95;;
4986;SDS011;12674;51.500;7.552;2023-10-13T10:54:05;14.93;;;5.43;;
4986;SDS011;12674;51.500;7.552;2023-10-13T10:56:14;23.55;;;6.03;;
4986;SDS011;12674;51.500;7.552;2023-10-13T10:58:26;15.18;;;5.55;;
4986;SDS011;12674;51.500;7.552;2023-10-13T11:00:45;18.63;;;6.55;;
4986;SDS011;12674;51.500;7.552;2023-10-13T11:02:55;22.48;;;6.40;;
4986;SDS011;12674;51.500;7.552;2023-10-13T11:05:00;33.35;;;5.75;;
4986;SDS011;12674;51.500;7.552;2023-10-13T11:07:03;21.52;;;6.03;;
4986;SDS011;12674;51.500;7.552;2023-10-13T11:09:08;14.05;;;5.18;;
4986;SDS011;12674;51.500;7.552;2023-10-13T11:11:29;13.48;;;6.25;;
4986;SDS011;12674;51.500;7.552;2023-10-13T11:13:40;23.77;;;6.55;;
4986;SDS011;12674;51.500;7.552;2023-10-13T11:15:52;13.43;;;6.40;;
4986;SDS011;12674;51.500;7.552;2023-10-13T11:17:58;19.65;;;6.10;;
4986;SDS011;12674;51.500;7.552;2023-10-13T11:20:09;16.23;;;6.45;;
4986;SDS011;12674;51.500;7.552;2023-10-13T11:22:18;26.55;;;6.90;;
4986;SDS011;12674;51.500;7.552;2023-10-13T11:24:38;29.75;;;7.00;;
4986;SDS011;12674;51.500;7.552;2023-10-13T11:26:42;12.27;;;5.63;;
4986;SDS011;12674;51.500;7.552;2023-10-13T11:28:51;20.70;;;6.30;;
4986;SDS011;12674;51.500;7.552;2023-10-13T11:30:57;23.17;;;6.03;;
4986;SDS011;12674;51.500;7.552;2023-10-13T11:33:02;23.92;;;6.78;;
4986;SDS011;12674;51.500;7.552;2023-10-13T11:35:09;14.90;;;6.38;;
4986;SDS011;12674;51.500;7.552;2023-10-13T11:37:21;22.02;;;6.07;;
4986;SDS011;12674;51.500;7.552;2023-10-13T11:39:39;16.70;;;6.50;;
4986;SDS011;12674;51.500;7.552;2023-10-13T11:41:45;14.43;;;5.95;;
4986;SDS011;12674;51.500;7.552;2023-10-13T11:43:55;26.15;;;5.70;;
4986;SDS011;12674;51.500;7.552;2023-10-13T11:46:25;24.10;;;6.60;;
4986;SDS011;12674;51.500;7.552;2023-10-13T11:48:46;27.58;;;5.97;;
4986;SDS011;12674;51.500;7.552;2023-10-13T11:50:50;23.25;;;6.43;;
4986;SDS011;12674;51.500;7.552;2023-10-13T11:52:55;23.52;;;6.20;;
4986;SDS011;12674;51.500;7.552;2023-10-13T11:54:59;20.05;;;6.47;;
4986;SDS011;12674;51.500;7.552;2023-10-13T11:57:01;34.78;;;7.10;;
4986;SDS011;12674;51.500;7.552;2023-10-13T11:59:03;21.02;;;7.55;;
4986;SDS011;12674;51.500;7.552;2023-10-13T12:01:07;16.45;;;6.50;;
4986;SDS011;12674;51.500;7.552;2023-10-13T12:03:22;13.57;;;6.45;;
4986;SDS011;12674;51.500;7.552;2023-10-13T12:05:43;20.63;;;5.88;;
4986;SDS011;12674;51.500;7.552;2023-10-13T12:08:06;15.80;;;5.90;;
4986;SDS011;12674;51.500;7.552;2023-10-13T12:10:21;16.40;;;6.07;;
4986;SDS011;12674;51.500;7.552;2023-10-13T12:12:38;26.17;;;6.65;;
4986;SDS011;12674;51.500;7.552;2023-10-13T12:14:44;15.23;;;6.07;;
4986;SDS011;12674;51.500;7.552;2023-10-13T12:16:56;19.27;;;5.95;;
4986;SDS011;12674;51.500;7.552;2023-10-13T12:19:05;31.00;;;7.03;;
4986;SDS011;12674;51.500;7.552;2023-10-13T12:21:13;18.77;;;7.00;;
4986;SDS011;12674;51.500;7.552;2023-10-13T12:23:22;22.00;;;6.13;;
4986;SDS011;12674;51.500;7.552;2023-10-13T12:25:33;9.57;;;5.40;;
4986;SDS011;12674;51.500;7.552;2023-10-13T12:27:46;16.35;;;5.65;;
4986;SDS011;12674;51.500;7.552;2023-10-13T12:29:50;19.13;;;6.78;;
4986;SDS011;12674;51.500;7.552;2023-10-13T12:31:54;25.35;;;6.55;;
4986;SDS011;12674;51.500;7.552;2023-10-13T12:34:09;19.02;;;6.47;;
4986;SDS011;12674;51.500;7.552;2023-10-13T12:36:21;16.17;;;6.32;;
4986;SDS011;12674;51.500;7.552;2023-10-13T12:38:34;13.93;;;6.00;;
4986;SDS011;12674;51.500;7.552;2023-10-13T12:41:13;25.60;;;6.93;;
4986;SDS011;12674;51.500;7.552;2023-10-13T12:43:37;13.88;;;5.22;;
4986;SDS011;12674;51.500;7.552;2023-10-13T12:45:57;21.45;;;6.50;;
4986;SDS011;12674;51.500;7.552;2023-10-13T12:48:18;16.50;;;6.22;;
4986;SDS011;12674;51.500;7.552;2023-10-13T12:50:38;21.50;;;6.20;;
4986;SDS011;12674;51.500;7.552;2023-10-13T12:52:46;20.20;;;5.90;;
4986;SDS011;12674;51.500;7.552;2023-10-13T12:54:51;29.50;;;6.03;;
4986;SDS011;12674;51.500;7.552;2023-10-13T12:57:00;15.85;;;6.50;;
4986;SDS011;12674;51.500;7.552;2023-10-13T12:59:02;19.95;;;6.35;;
4986;SDS011;12674;51.500;7.552;2023-10-13T13:01:10;22.20;;;6.45;;
4986;SDS011;12674;51.500;7.552;2023-10-13T13:03:15;28.15;;;6.97;;
4986;SDS011;12674;51.500;7.552;2023-10-13T13:05:18;15.48;;;5.32;;